Airfield :
LOGIN :

Register | Disclaimer

   EN    FR    IT 

 










Legend :    VFR   Marginal VFR   IFR   Intensive IFR   Very Intensive IFR
Visi :
Ceiling :
>= 8 km
>= 3000ft
5 to 8 km
1000 to 3000 ft
1500m to 5 km
500 to 1000 ft
800 to 1500m
200 to 500 ft
< 800m
< 200 ft
Symbols :   Thunderstorms  Fog  Heavy snow  Heavy precipitations  Wind > 20 kt
SIGMETs :     Misc.  Thunderstorms  Icing  Turbulence  Mountain Waves  Volcanic Ashes







- Airport Elevation : 466 ft


LHPA - Pápa

CURRENT METAR :
  • 231645Z 28002KT CAVOK 23/14 Q1013 NOSIG RMK BLU

EXPIRED METARs :
  • 231615Z 27004KT 9999 FEW050TCU OVC200 24/13 Q1013 NOSIG RMK BLU
  • 231545Z 30006KT 9999 FEW050TCU BKN200 24/13 Q1013 NOSIG RMK BLU
  • 231515Z 31006KT 9999 FEW040CB BKN200 24/13 Q1013 NOSIG RMK BLU
  • 231445Z 31004KT 9999 FEW040CB SCT053TCU BKN200 24/14 Q1013 TEMPO -SHRA RMK BLU
  • 231415Z 31006KT 9999 FEW040CB SCT053TCU BKN200 25/11 Q1013 TEMPO -SHRA RMK BLU

TAF TAF LHPA
Valid from the 23 at 12:00 until the 24 at 12:00 UTC


231115Z 2312/2412 VRB03KT CAVOK
PROB40
TEMPO 2312/2320 VRB18G32KT 5000 SHRA -TSRA FEW040CB SCT050TCU BKN080
PROB40
TEMPO 2402/2409 VRB12KT 6000 SHRA -RA SCT040TCU BKN080
BECMG 2403/2406 32008KT
TEMPO 2408/2412 32012KT
No reported NOTAMs for that airfield.
1 SIGMET reported for the Budapest FIR (LHCC) :
 
Embedded thunderstorms
LHCC SIGMET 01 VALID 231645/232000 LHBP
LHCC BUDAPEST FIR EMBD TS OBS WI N4709 E01852 - N4817 E02058 - N4735 E02151 - N4637 E02005 - N4709 E01852 TOP FL360 MOV SE NC=



MET'MAP, your aeronautical weather chart ! - Copyright ORBIFLY December 2007 - Disclaimer

ORBIFLY MET'MAP TEAM :

Programming & Development : Alexandra Zaïnal
Concept & Development : Baudouin d'Aumeries
Co-Development & Prog : Marc-Olivier Méhu
Technical & hardware support : Manuel Goepfert

Contact : metmap@orbifly.com




SOURCES & CREDITS :

   NOAA